Seattle, Washington
Traffic Map
Current Weather Conditions
Seattle, Washington
Clear
Clear
14°
Feels Like: 14°
Wind Chill: 14° Ceiling: Unl
Heat Index: 14° Visibility: 10mi
Dew Point: 11° Wind: 0mph
Humidity: 83% Direction: ° ()
Pressure: 30.22in Gusts: 0mph
Raw Report DataKBFI 261253Z 00000KT 10SM CLR 14/11 A3022 RMK AO2 SLP234 T01390111
Traffic Incident Summary
Active as of:
Severity:
Category:
InformationThere was an issue retrieving the traffic information for this location. Please try a different location or try again shortly.
Advertisements
Track Severe Weather on mobile